createdAt,value
2023-01-15T00:00:28.593Z,88171.00
2023-01-15T00:01:28.597Z,88163.00
2023-01-15T00:02:28.546Z,88169.00
2023-01-15T00:03:28.520Z,88157.00
2023-01-15T00:04:28.468Z,88169.00
2023-01-15T00:05:28.436Z,88167.00
2023-01-15T00:06:28.409Z,88175.00
2023-01-15T00:07:28.367Z,88163.00
2023-01-15T00:08:28.327Z,88163.00
2023-01-15T00:09:28.312Z,88159.00
2023-01-15T00:10:28.271Z,88155.00
2023-01-15T00:11:28.223Z,88161.00
2023-01-15T00:12:28.202Z,88167.00
2023-01-15T00:13:28.248Z,88155.00
2023-01-15T00:14:28.125Z,88161.00
2023-01-15T00:15:28.084Z,88159.00
2023-01-15T00:16:28.088Z,88165.00
2023-01-15T00:17:28.064Z,88163.00
2023-01-15T00:18:28.011Z,88159.00
2023-01-15T00:19:27.992Z,88161.00
2023-01-15T00:20:27.952Z,88153.00
2023-01-15T00:21:27.912Z,88163.00
2023-01-15T00:22:27.911Z,88155.00
2023-01-15T00:23:27.878Z,88157.00
2023-01-15T00:24:27.831Z,88163.00
2023-01-15T00:25:27.785Z,88157.00
2023-01-15T00:26:27.771Z,88149.00
2023-01-15T00:27:27.734Z,88157.00
2023-01-15T00:28:27.704Z,88151.00
2023-01-15T00:29:27.661Z,88145.00
2023-01-15T00:30:27.645Z,88147.00
2023-01-15T00:31:27.647Z,88145.00
2023-01-15T00:32:27.605Z,88145.00
2023-01-15T00:33:27.540Z,88149.00
2023-01-15T00:34:27.520Z,88147.00
2023-01-15T00:35:27.481Z,88144.00
2023-01-15T00:36:27.470Z,88138.00
2023-01-15T00:37:27.437Z,88136.00
2023-01-15T00:38:27.395Z,88151.00
2023-01-15T00:39:27.375Z,88138.00
2023-01-15T00:40:27.337Z,88136.00
2023-01-15T00:41:27.301Z,88132.00
2023-01-15T00:42:27.280Z,88124.00
2023-01-15T00:43:27.267Z,88132.00
2023-01-15T00:44:27.216Z,88128.00
2023-01-15T00:45:27.196Z,88122.00
2023-01-15T00:46:27.167Z,88136.00
2023-01-15T00:47:27.160Z,88126.00
2023-01-15T00:48:27.124Z,88132.00
2023-01-15T00:49:27.099Z,88134.00
2023-01-15T00:50:27.043Z,88136.00
2023-01-15T00:51:27.032Z,88140.00
2023-01-15T00:52:27.019Z,88126.00
2023-01-15T00:53:26.975Z,88128.00
2023-01-15T00:54:26.953Z,88134.00
2023-01-15T00:55:26.923Z,88138.00
2023-01-15T00:56:26.898Z,88124.00
2023-01-15T00:57:26.875Z,88130.00
2023-01-15T00:58:26.876Z,88124.00
2023-01-15T00:59:26.826Z,88124.00
2023-01-15T01:00:26.794Z,88122.00
2023-01-15T01:01:26.851Z,88128.00
2023-01-15T01:02:26.776Z,88124.00
2023-01-15T01:03:26.727Z,88124.00
2023-01-15T01:04:26.680Z,88124.00
2023-01-15T01:05:26.655Z,88124.00
2023-01-15T01:06:26.670Z,88118.00
2023-01-15T01:07:26.610Z,88126.00
2023-01-15T01:08:26.606Z,88122.00
2023-01-15T01:09:26.574Z,88110.00
2023-01-15T01:10:26.549Z,88124.00
2023-01-15T01:11:26.584Z,88120.00
2023-01-15T01:12:26.509Z,88116.00
2023-01-15T01:13:26.504Z,88114.00
2023-01-15T01:14:26.463Z,88110.00
2023-01-15T01:15:26.443Z,88110.00
2023-01-15T01:16:26.493Z,88112.00
2023-01-15T01:17:26.390Z,88110.00
2023-01-15T01:18:26.374Z,88108.00
2023-01-15T01:19:26.362Z,88108.00
2023-01-15T01:20:26.322Z,88102.00
2023-01-15T01:21:26.308Z,88108.00
2023-01-15T01:22:26.270Z,88112.00
2023-01-15T01:23:26.252Z,88108.00
2023-01-15T01:24:26.207Z,88108.00
2023-01-15T01:25:26.200Z,88100.00
2023-01-15T01:26:26.181Z,88104.00
2023-01-15T01:27:26.165Z,88098.00
2023-01-15T01:28:26.144Z,88104.00
2023-01-15T01:29:26.107Z,88100.00
2023-01-15T01:30:26.078Z,88106.00
2023-01-15T01:31:26.069Z,88102.00
2023-01-15T01:32:26.043Z,88097.00
2023-01-15T01:33:26.025Z,88095.00
2023-01-15T01:34:26.003Z,88098.00
2023-01-15T01:35:25.961Z,88095.00
2023-01-15T01:36:25.962Z,88100.00
2023-01-15T01:37:25.939Z,88093.00
2023-01-15T01:38:25.936Z,88093.00
2023-01-15T01:39:25.875Z,88095.00
2023-01-15T01:40:25.859Z,88091.00
2023-01-15T01:41:25.823Z,88087.00
2023-01-15T01:42:25.824Z,88087.00
2023-01-15T01:43:25.789Z,88097.00
2023-01-15T01:44:25.793Z,88089.00
2023-01-15T01:45:25.782Z,88089.00
2023-01-15T01:46:25.712Z,88089.00
2023-01-15T01:47:25.677Z,88077.00
2023-01-15T01:48:25.684Z,88093.00
2023-01-15T01:49:25.645Z,88081.00
2023-01-15T01:50:25.655Z,88081.00
2023-01-15T01:51:25.597Z,88077.00
2023-01-15T01:52:25.563Z,88075.00
2023-01-15T01:53:25.524Z,88067.00
2023-01-15T01:54:25.523Z,88077.00
2023-01-15T01:55:25.481Z,88073.00
2023-01-15T01:56:25.446Z,88071.00
2023-01-15T01:57:25.410Z,88069.00
2023-01-15T01:58:25.396Z,88065.00
2023-01-15T01:59:25.387Z,88059.00
2023-01-15T02:00:25.368Z,88063.00
2023-01-15T02:01:25.444Z,88065.00
2023-01-15T02:02:25.341Z,88063.00
2023-01-15T02:03:25.268Z,88059.00
2023-01-15T02:04:25.256Z,88063.00
2023-01-15T02:05:25.220Z,88055.00
2023-01-15T02:06:25.205Z,88055.00
2023-01-15T02:07:25.176Z,88057.00
2023-01-15T02:08:25.152Z,88047.00
2023-01-15T02:09:25.148Z,88057.00
2023-01-15T02:10:25.110Z,88053.00
2023-01-15T02:11:25.110Z,88057.00
2023-01-15T02:12:25.079Z,88051.00
2023-01-15T02:13:25.058Z,88051.00
2023-01-15T02:14:25.070Z,88053.00
2023-01-15T02:15:25.029Z,88047.00
2023-01-15T02:16:24.999Z,88047.00
2023-01-15T02:17:24.993Z,88047.00
2023-01-15T02:18:24.950Z,88045.00
2023-01-15T02:19:24.966Z,88047.00
2023-01-15T02:20:24.899Z,88049.00
2023-01-15T02:21:24.883Z,88042.00
2023-01-15T02:22:24.866Z,88045.00
2023-01-15T02:23:24.842Z,88036.00
2023-01-15T02:24:24.837Z,88032.00
2023-01-15T02:25:24.800Z,88034.00
2023-01-15T02:26:24.783Z,88026.00
2023-01-15T02:27:24.761Z,88034.00
2023-01-15T02:28:24.746Z,88036.00
2023-01-15T02:29:24.761Z,88024.00
2023-01-15T02:30:24.726Z,88020.00
2023-01-15T02:31:24.719Z,88018.00
2023-01-15T02:32:24.672Z,88026.00
2023-01-15T02:33:24.693Z,88024.00
2023-01-15T02:34:24.653Z,88020.00
2023-01-15T02:35:24.617Z,88020.00
2023-01-15T02:36:24.598Z,88020.00
2023-01-15T02:37:24.570Z,88016.00
2023-01-15T02:38:24.553Z,88018.00
2023-01-15T02:39:24.528Z,88016.00
2023-01-15T02:40:24.529Z,88022.00
2023-01-15T02:41:24.482Z,88018.00
2023-01-15T02:42:24.466Z,88016.00
2023-01-15T02:43:24.433Z,88010.00
2023-01-15T02:44:24.424Z,88006.00
2023-01-15T02:45:24.412Z,88006.00
2023-01-15T02:46:24.361Z,88004.00
2023-01-15T02:47:24.338Z,88000.00
2023-01-15T02:48:24.321Z,88000.00
2023-01-15T02:49:24.298Z,87994.00
2023-01-15T02:50:24.302Z,88004.00
2023-01-15T02:51:24.258Z,87998.00
2023-01-15T02:52:24.217Z,88008.00
2023-01-15T02:53:24.215Z,87998.00
2023-01-15T02:54:24.175Z,87996.00
2023-01-15T02:55:24.205Z,87992.00
2023-01-15T02:56:24.129Z,87996.00
2023-01-15T02:57:24.120Z,87988.00
2023-01-15T02:58:24.083Z,87980.00
2023-01-15T02:59:24.071Z,87980.00
2023-01-15T03:00:24.042Z,87988.00
2023-01-15T03:01:24.156Z,87976.00
2023-01-15T03:02:24.052Z,87980.00
2023-01-15T03:03:23.970Z,87992.00
2023-01-15T03:04:23.927Z,87978.00
2023-01-15T03:05:23.946Z,87970.00
2023-01-15T03:06:23.893Z,87970.00
2023-01-15T03:07:23.848Z,87968.00
2023-01-15T03:08:23.820Z,87958.00
2023-01-15T03:09:23.808Z,87960.00
2023-01-15T03:10:23.789Z,87964.00
2023-01-15T03:11:23.788Z,87974.00
2023-01-15T03:12:23.737Z,87968.00
2023-01-15T03:13:23.721Z,87974.00
2023-01-15T03:14:23.692Z,87974.00
2023-01-15T03:15:23.681Z,87972.00
2023-01-15T03:16:23.695Z,87970.00
2023-01-15T03:17:23.645Z,87958.00
2023-01-15T03:18:23.617Z,87952.00
2023-01-15T03:19:23.595Z,87950.00
2023-01-15T03:20:23.575Z,87956.00
2023-01-15T03:21:23.535Z,87952.00
2023-01-15T03:22:23.511Z,87948.00
2023-01-15T03:23:23.507Z,87942.00
2023-01-15T03:24:23.467Z,87956.00
2023-01-15T03:25:23.456Z,87946.00
2023-01-15T03:26:23.418Z,87940.00
2023-01-15T03:27:23.395Z,87940.00
2023-01-15T03:28:23.375Z,87944.00
2023-01-15T03:29:23.351Z,87944.00
2023-01-15T03:30:23.338Z,87942.00
2023-01-15T03:31:23.326Z,87950.00
2023-01-15T03:32:23.287Z,87944.00
2023-01-15T03:33:23.262Z,87936.00
2023-01-15T03:34:23.240Z,87934.00
2023-01-15T03:35:23.202Z,87934.00
2023-01-15T03:36:23.206Z,87936.00
2023-01-15T03:37:23.175Z,87938.00
2023-01-15T03:38:23.123Z,87934.00
2023-01-15T03:39:23.107Z,87938.00
2023-01-15T03:40:23.070Z,87923.00
2023-01-15T03:41:23.065Z,87932.00
2023-01-15T03:42:23.016Z,87932.00
2023-01-15T03:43:22.990Z,87930.00
2023-01-15T03:44:22.975Z,87928.00
2023-01-15T03:45:22.956Z,87927.00
2023-01-15T03:46:22.991Z,87917.00
2023-01-15T03:47:22.892Z,87911.00
2023-01-15T03:48:22.869Z,87909.00
2023-01-15T03:49:22.847Z,87911.00
2023-01-15T03:50:22.829Z,87917.00
2023-01-15T03:51:22.811Z,87897.00
2023-01-15T03:52:22.787Z,87907.00
2023-01-15T03:53:22.731Z,87905.00
2023-01-15T03:54:22.700Z,87907.00
2023-01-15T03:55:22.686Z,87903.00
2023-01-15T03:56:22.662Z,87899.00
2023-01-15T03:57:22.649Z,87911.00
2023-01-15T03:58:22.626Z,87901.00
2023-01-15T03:59:22.592Z,87899.00
2023-01-15T04:00:22.582Z,87893.00
2023-01-15T04:01:22.677Z,87895.00
2023-01-15T04:02:22.542Z,87897.00
2023-01-15T04:03:22.507Z,87883.00
2023-01-15T04:04:22.531Z,87889.00
2023-01-15T04:05:22.464Z,87891.00
2023-01-15T04:06:22.441Z,87893.00
2023-01-15T04:07:22.405Z,87883.00
2023-01-15T04:08:22.378Z,87878.00
2023-01-15T04:09:22.359Z,87883.00
2023-01-15T04:10:22.347Z,87889.00
2023-01-15T04:11:22.306Z,87893.00
2023-01-15T04:12:22.274Z,87889.00
2023-01-15T04:13:22.257Z,87881.00
2023-01-15T04:14:22.227Z,87876.00
2023-01-15T04:15:22.196Z,87876.00
2023-01-15T04:16:22.192Z,87874.00
2023-01-15T04:17:22.153Z,87870.00
2023-01-15T04:18:22.125Z,87868.00
2023-01-15T04:19:22.084Z,87872.00
2023-01-15T04:20:22.079Z,87864.00
2023-01-15T04:21:22.076Z,87874.00
2023-01-15T04:22:22.034Z,87876.00
2023-01-15T04:23:22.003Z,87878.00
2023-01-15T04:24:21.970Z,87881.00
2023-01-15T04:25:21.932Z,87889.00
2023-01-15T04:26:21.928Z,87876.00
2023-01-15T04:27:21.908Z,87874.00
2023-01-15T04:28:21.862Z,87874.00
2023-01-15T04:29:21.835Z,87883.00
2023-01-15T04:30:21.802Z,87876.00
2023-01-15T04:31:21.861Z,87872.00
2023-01-15T04:32:21.741Z,87874.00
2023-01-15T04:33:21.713Z,87874.00
2023-01-15T04:34:21.698Z,87866.00
2023-01-15T04:35:21.663Z,87866.00
2023-01-15T04:36:21.654Z,87868.00
2023-01-15T04:37:21.641Z,87864.00
2023-01-15T04:38:21.600Z,87866.00
2023-01-15T04:39:21.556Z,87858.00
2023-01-15T04:40:21.553Z,87856.00
2023-01-15T04:41:21.521Z,87858.00
2023-01-15T04:42:21.493Z,87852.00
2023-01-15T04:43:21.471Z,87846.00
2023-01-15T04:44:21.449Z,87846.00
2023-01-15T04:45:21.436Z,87850.00
2023-01-15T04:46:21.432Z,87846.00
2023-01-15T04:47:21.378Z,87844.00
2023-01-15T04:48:21.357Z,87838.00
2023-01-15T04:49:21.879Z,87846.00
2023-01-15T04:50:21.309Z,87840.00
2023-01-15T04:51:21.287Z,87846.00
2023-01-15T04:52:21.260Z,87834.00
2023-01-15T04:53:21.229Z,87823.00
2023-01-15T04:54:21.188Z,87832.00
2023-01-15T04:55:21.201Z,87846.00
2023-01-15T04:56:21.160Z,87836.00
2023-01-15T04:57:21.150Z,87838.00
2023-01-15T04:58:21.102Z,87830.00
2023-01-15T04:59:21.094Z,87825.00
2023-01-15T05:00:21.067Z,87838.00
2023-01-15T05:01:21.088Z,87826.00
2023-01-15T05:02:21.105Z,87821.00
2023-01-15T05:03:20.989Z,87811.00
2023-01-15T05:04:21.021Z,87819.00
2023-01-15T05:05:20.973Z,87817.00
2023-01-15T05:06:20.918Z,87819.00
2023-01-15T05:07:20.910Z,87826.00
2023-01-15T05:08:20.905Z,87828.00
2023-01-15T05:09:20.884Z,87825.00
2023-01-15T05:10:20.846Z,87838.00
2023-01-15T05:11:20.832Z,87844.00
2023-01-15T05:12:20.809Z,87840.00
2023-01-15T05:13:20.784Z,87844.00
2023-01-15T05:14:20.764Z,87838.00
2023-01-15T05:15:20.738Z,87832.00
2023-01-15T05:16:20.721Z,87838.00
2023-01-15T05:17:20.716Z,87834.00
2023-01-15T05:18:20.689Z,87828.00
2023-01-15T05:19:20.677Z,87826.00
2023-01-15T05:20:20.642Z,87828.00
2023-01-15T05:21:20.633Z,87826.00
2023-01-15T05:22:20.600Z,87821.00
2023-01-15T05:23:20.602Z,87825.00
2023-01-15T05:24:20.553Z,87836.00
2023-01-15T05:25:20.516Z,87838.00
2023-01-15T05:26:20.520Z,87832.00
2023-01-15T05:27:20.472Z,87826.00
2023-01-15T05:28:20.464Z,87836.00
2023-01-15T05:29:20.432Z,87825.00
2023-01-15T05:30:20.389Z,87826.00
2023-01-15T05:31:20.463Z,87826.00
2023-01-15T05:32:20.350Z,87826.00
2023-01-15T05:33:20.357Z,87821.00
2023-01-15T05:34:20.314Z,87826.00
2023-01-15T05:35:20.271Z,87826.00
2023-01-15T05:36:20.240Z,87825.00
2023-01-15T05:37:20.236Z,87819.00
2023-01-15T05:38:20.204Z,87821.00
2023-01-15T05:39:20.186Z,87809.00
2023-01-15T05:40:20.145Z,87797.00
2023-01-15T05:41:20.124Z,87807.00
2023-01-15T05:42:20.093Z,87799.00
2023-01-15T05:43:20.095Z,87811.00
2023-01-15T05:44:20.057Z,87803.00
2023-01-15T05:45:20.014Z,87795.00
2023-01-15T05:46:20.057Z,87799.00
2023-01-15T05:47:19.982Z,87809.00
2023-01-15T05:48:19.942Z,87801.00
2023-01-15T05:49:19.913Z,87791.00
2023-01-15T05:50:19.898Z,87781.00
2023-01-15T05:51:19.856Z,87791.00
2023-01-15T05:52:19.812Z,87785.00
2023-01-15T05:53:19.879Z,87789.00
2023-01-15T05:54:19.783Z,87801.00
2023-01-15T05:55:19.736Z,87813.00
2023-01-15T05:56:19.727Z,87809.00
2023-01-15T05:57:19.703Z,87815.00
2023-01-15T05:58:19.672Z,87793.00
2023-01-15T05:59:19.639Z,87793.00
2023-01-15T06:00:19.607Z,87793.00
2023-01-15T06:01:19.583Z,87793.00
2023-01-15T06:02:19.568Z,87807.00
2023-01-15T06:03:19.575Z,87803.00
2023-01-15T06:04:19.493Z,87797.00
2023-01-15T06:05:19.453Z,87801.00
2023-01-15T06:06:19.430Z,87807.00
2023-01-15T06:07:19.406Z,87805.00
2023-01-15T06:08:19.398Z,87801.00
2023-01-15T06:09:19.398Z,87809.00
2023-01-15T06:10:19.351Z,87807.00
2023-01-15T06:11:19.307Z,87805.00
2023-01-15T06:12:19.275Z,87809.00
2023-01-15T06:13:19.264Z,87803.00
2023-01-15T06:14:19.233Z,87811.00
2023-01-15T06:15:19.215Z,87811.00
2023-01-15T06:16:19.223Z,87813.00
2023-01-15T06:17:19.157Z,87807.00
2023-01-15T06:18:19.136Z,87805.00
2023-01-15T06:19:19.116Z,87807.00
2023-01-15T06:20:19.077Z,87805.00
2023-01-15T06:21:19.925Z,87805.00
2023-01-15T06:22:19.039Z,87811.00
2023-01-15T06:23:19.013Z,87811.00
2023-01-15T06:24:18.987Z,87807.00
2023-01-15T06:25:18.946Z,87797.00
2023-01-15T06:26:18.953Z,87795.00
2023-01-15T06:27:18.906Z,87789.00
2023-01-15T06:56:18.248Z,87821.00
2023-01-15T06:57:18.231Z,87813.00
2023-01-15T06:58:18.210Z,87807.00
2023-01-15T06:59:18.187Z,87799.00
2023-01-15T07:00:18.154Z,87801.00
2023-01-15T07:01:18.295Z,87789.00
2023-01-15T07:02:18.349Z,87795.00
2023-01-15T07:03:18.081Z,87799.00
2023-01-15T07:04:18.060Z,87801.00
2023-01-15T07:05:18.048Z,87799.00
2023-01-15T07:06:18.013Z,87795.00
2023-01-15T07:07:17.991Z,87803.00
2023-01-15T07:08:17.978Z,87791.00
2023-01-15T07:09:17.946Z,87781.00
2023-01-15T07:10:17.943Z,87785.00
2023-01-15T07:11:17.907Z,87785.00
2023-01-15T07:12:17.903Z,87781.00
2023-01-15T07:13:17.881Z,87781.00
2023-01-15T07:14:17.856Z,87779.00
2023-01-15T07:15:17.831Z,87772.00
2023-01-15T07:16:17.835Z,87762.00
2023-01-15T07:17:17.762Z,87768.00
2023-01-15T07:18:17.755Z,87770.00
2023-01-15T07:19:17.728Z,87774.00
2023-01-15T07:20:17.705Z,87772.00
2023-01-15T07:21:17.665Z,87776.00
2023-01-15T07:22:17.659Z,87778.00
2023-01-15T07:23:17.622Z,87776.00
2023-01-15T07:24:17.662Z,87778.00
2023-01-15T07:25:17.592Z,87770.00
2023-01-15T07:26:17.585Z,87778.00
2023-01-15T07:27:17.553Z,87772.00
2023-01-15T07:28:17.542Z,87774.00
2023-01-15T07:29:17.535Z,87772.00
2023-01-15T07:30:17.555Z,87791.00
2023-01-15T07:31:17.504Z,87785.00
2023-01-15T07:32:17.451Z,87787.00
2023-01-15T07:33:17.455Z,87789.00
2023-01-15T07:34:17.408Z,87783.00
2023-01-15T07:35:17.388Z,87779.00
2023-01-15T07:36:17.358Z,87789.00
2023-01-15T07:37:17.345Z,87787.00
2023-01-15T07:38:17.311Z,87783.00
2023-01-15T07:39:17.286Z,87785.00
2023-01-15T07:40:17.280Z,87785.00
2023-01-15T07:41:17.232Z,87783.00
2023-01-15T07:42:17.217Z,87793.00
2023-01-15T07:43:17.191Z,87781.00
2023-01-15T07:44:17.167Z,87779.00
2023-01-15T07:45:17.149Z,87776.00
2023-01-15T07:46:17.112Z,87770.00
2023-01-15T07:47:17.115Z,87768.00
2023-01-15T07:48:17.096Z,87764.00
2023-01-15T07:49:17.039Z,87764.00
2023-01-15T07:50:17.050Z,87772.00
2023-01-15T07:51:17.023Z,87776.00
2023-01-15T07:52:16.991Z,87768.00
2023-01-15T07:53:16.954Z,87779.00
2023-01-15T07:54:16.946Z,87778.00
2023-01-15T07:55:16.935Z,87774.00
2023-01-15T07:56:16.904Z,87756.00
2023-01-15T07:57:16.849Z,87764.00
2023-01-15T07:58:16.837Z,87766.00
2023-01-15T07:59:16.804Z,87768.00
2023-01-15T08:00:16.892Z,87768.00
2023-01-15T08:01:16.856Z,87762.00
2023-01-15T08:02:16.722Z,87772.00
2023-01-15T08:03:16.692Z,87758.00
2023-01-15T08:04:16.709Z,87772.00
2023-01-15T08:05:16.656Z,87768.00
2023-01-15T08:06:16.624Z,87772.00
2023-01-15T08:07:16.586Z,87758.00
2023-01-15T08:08:16.572Z,87760.00
2023-01-15T08:09:16.536Z,87768.00
2023-01-15T08:10:16.500Z,87756.00
2023-01-15T08:11:16.491Z,87760.00
2023-01-15T08:12:16.455Z,87762.00
2023-01-15T08:13:16.425Z,87762.00
2023-01-15T08:14:16.420Z,87754.00
2023-01-15T08:15:16.399Z,87768.00
2023-01-15T08:16:16.364Z,87774.00
2023-01-15T08:17:16.323Z,87770.00
2023-01-15T08:18:16.302Z,87762.00
2023-01-15T08:19:16.263Z,87756.00
2023-01-15T08:20:16.288Z,87764.00
2023-01-15T08:21:16.244Z,87756.00
2023-01-15T08:22:16.196Z,87750.00
2023-01-15T08:23:16.173Z,87748.00
2023-01-15T08:24:16.133Z,87750.00
2023-01-15T08:25:16.113Z,87748.00
2023-01-15T08:26:16.096Z,87750.00
2023-01-15T08:27:16.057Z,87746.00
2023-01-15T08:28:16.031Z,87760.00
2023-01-15T08:29:16.010Z,87764.00
2023-01-15T08:30:15.982Z,87758.00
2023-01-15T08:31:16.001Z,87754.00
2023-01-15T08:32:15.928Z,87750.00
2023-01-15T08:33:15.899Z,87754.00
2023-01-15T08:34:15.876Z,87756.00
2023-01-15T08:35:15.850Z,87750.00
2023-01-15T08:36:15.812Z,87748.00
2023-01-15T08:37:15.783Z,87746.00
2023-01-15T08:38:15.785Z,87744.00
2023-01-15T08:39:15.755Z,87740.00
2023-01-15T08:40:15.740Z,87736.00
2023-01-15T08:41:15.709Z,87734.00
2023-01-15T08:42:15.685Z,87734.00
2023-01-15T08:43:15.640Z,87736.00
2023-01-15T08:44:15.642Z,87716.00
2023-01-15T08:45:15.592Z,87732.00
2023-01-15T08:46:15.604Z,87725.00
2023-01-15T08:47:15.555Z,87738.00
2023-01-15T08:48:15.558Z,87740.00
2023-01-15T08:49:15.503Z,87738.00
2023-01-15T08:50:15.487Z,87738.00
2023-01-15T08:51:15.485Z,87732.00
2023-01-15T08:52:15.431Z,87725.00
2023-01-15T08:53:15.411Z,87723.00
2023-01-15T08:54:15.395Z,87736.00
2023-01-15T08:55:15.370Z,87723.00
2023-01-15T08:56:15.347Z,87719.00
2023-01-15T08:57:15.342Z,87721.00
2023-01-15T08:58:15.294Z,87723.00
2023-01-15T08:59:15.266Z,87723.00
2023-01-15T09:00:17.376Z,87725.00
2023-01-15T09:01:15.319Z,87714.00
2023-01-15T09:02:15.239Z,87712.00
2023-01-15T09:03:15.190Z,87710.00
2023-01-15T09:04:15.158Z,87704.00
2023-01-15T09:05:15.155Z,87708.00
2023-01-15T09:06:15.115Z,87718.00
2023-01-15T09:07:15.116Z,87723.00
2023-01-15T09:08:15.081Z,87716.00
2023-01-15T09:09:15.030Z,87718.00
2023-01-15T09:10:15.016Z,87719.00
2023-01-15T09:11:14.973Z,87723.00
2023-01-15T09:12:14.974Z,87716.00
2023-01-15T09:13:14.915Z,87725.00
2023-01-15T09:14:58.456Z,87706.00
2023-01-15T09:15:15.871Z,87710.00
2023-01-15T09:16:14.903Z,87710.00
2023-01-15T09:17:14.828Z,87696.00
2023-01-15T09:18:14.792Z,87700.00
2023-01-15T09:19:14.772Z,87700.00
2023-01-15T09:20:14.748Z,87696.00
2023-01-15T09:21:14.729Z,87690.00
2023-01-15T09:22:14.717Z,87694.00
2023-01-15T09:23:14.680Z,87694.00
2023-01-15T09:24:14.632Z,87692.00
2023-01-15T09:25:14.621Z,87702.00
2023-01-15T09:26:14.587Z,87702.00
2023-01-15T09:27:14.566Z,87696.00
2023-01-15T09:28:14.520Z,87702.00
2023-01-15T09:29:14.521Z,87698.00
2023-01-15T09:30:14.468Z,87702.00
2023-01-15T09:31:14.501Z,87710.00
2023-01-15T09:32:14.430Z,87712.00
2023-01-15T09:33:14.387Z,87712.00
2023-01-15T09:34:14.372Z,87714.00
2023-01-15T09:35:14.343Z,87704.00
2023-01-15T09:36:14.299Z,87710.00
2023-01-15T09:37:14.293Z,87712.00
2023-01-15T09:38:14.275Z,87710.00
2023-01-15T09:39:14.229Z,87714.00
2023-01-15T09:40:14.206Z,87710.00
2023-01-15T09:41:14.156Z,87706.00
2023-01-15T09:42:14.146Z,87698.00
2023-01-15T09:43:14.131Z,87694.00
2023-01-15T09:44:14.075Z,87696.00
2023-01-15T09:45:14.047Z,87700.00
2023-01-15T09:46:14.138Z,87698.00
2023-01-15T09:47:14.014Z,87712.00
2023-01-15T09:48:13.985Z,87708.00
2023-01-15T09:49:13.943Z,87704.00
2023-01-15T09:50:13.918Z,87704.00
2023-01-15T09:51:13.890Z,87692.00
2023-01-15T09:52:13.857Z,87698.00
2023-01-15T09:53:13.849Z,87698.00
2023-01-15T09:54:13.813Z,87706.00
2023-01-15T09:55:13.789Z,87690.00
2023-01-15T09:56:13.764Z,87696.00
2023-01-15T09:57:13.747Z,87696.00
2023-01-15T09:58:13.760Z,87690.00
2023-01-15T09:59:13.710Z,87684.00
2023-01-15T10:00:13.674Z,87678.00
2023-01-15T10:01:13.653Z,87680.00
2023-01-15T10:02:13.635Z,87690.00
2023-01-15T10:03:13.650Z,87690.00
2023-01-15T10:04:13.630Z,87690.00
2023-01-15T10:05:13.559Z,87690.00
2023-01-15T10:06:13.524Z,87694.00
2023-01-15T10:07:13.501Z,87690.00
2023-01-15T10:08:13.490Z,87688.00
2023-01-15T10:09:13.451Z,87688.00
2023-01-15T10:10:13.428Z,87688.00
2023-01-15T10:11:13.427Z,87690.00
2023-01-15T10:12:13.378Z,87686.00
2023-01-15T10:13:13.370Z,87692.00
2023-01-15T10:14:13.339Z,87690.00
2023-01-15T10:15:13.316Z,87688.00
2023-01-15T10:16:13.371Z,87686.00
2023-01-15T10:17:13.275Z,87686.00
2023-01-15T10:18:13.241Z,87684.00
2023-01-15T10:19:13.224Z,87678.00
2023-01-15T10:20:13.194Z,87668.00
2023-01-15T10:21:13.188Z,87668.00
2023-01-15T10:22:13.142Z,87664.00
2023-01-15T10:23:13.125Z,87661.00
2023-01-15T10:24:13.103Z,87670.00
2023-01-15T10:25:13.072Z,87666.00
2023-01-15T10:26:13.057Z,87663.00
2023-01-15T10:27:13.073Z,87655.00
2023-01-15T10:28:13.001Z,87657.00
2023-01-15T10:29:12.983Z,87655.00
2023-01-15T10:30:12.959Z,87661.00
2023-01-15T10:31:12.953Z,87645.00
2023-01-15T10:32:12.907Z,87645.00
2023-01-15T10:33:12.872Z,87651.00
2023-01-15T10:34:12.878Z,87653.00
2023-01-15T10:35:12.836Z,87659.00
2023-01-15T10:36:12.809Z,87657.00
2023-01-15T10:37:12.793Z,87664.00
2023-01-15T10:38:12.776Z,87668.00
2023-01-15T10:39:12.781Z,87663.00
2023-01-15T10:40:12.709Z,87664.00
2023-01-15T10:41:12.692Z,87664.00
2023-01-15T10:42:12.662Z,87657.00
2023-01-15T10:43:12.660Z,87653.00
2023-01-15T10:44:12.612Z,87663.00
2023-01-15T10:45:12.575Z,87653.00
2023-01-15T10:46:12.585Z,87657.00
2023-01-15T10:47:12.534Z,87655.00
2023-01-15T10:48:12.482Z,87645.00
2023-01-15T10:49:12.469Z,87647.00
2023-01-15T10:50:12.427Z,87647.00
2023-01-15T10:51:12.389Z,87653.00
2023-01-15T10:52:12.344Z,87651.00
2023-01-15T10:53:12.318Z,87643.00
2023-01-15T10:54:12.309Z,87639.00
2023-01-15T10:55:12.261Z,87637.00
2023-01-15T10:56:12.237Z,87637.00
2023-01-15T10:57:12.267Z,87633.00
2023-01-15T10:58:12.172Z,87629.00
2023-01-15T10:59:12.160Z,87625.00
2023-01-15T11:00:12.121Z,87623.00
2023-01-15T11:01:12.170Z,87629.00
2023-01-15T11:02:12.227Z,87627.00
2023-01-15T11:03:12.058Z,87625.00
2023-01-15T11:04:11.997Z,87623.00
2023-01-15T11:05:11.955Z,87619.00
2023-01-15T11:06:11.915Z,87619.00
2023-01-15T11:07:11.881Z,87610.00
2023-01-15T11:08:54.902Z,87604.00
2023-01-15T11:09:12.806Z,87604.00
2023-01-15T11:10:11.822Z,87606.00
2023-01-15T11:11:11.745Z,87602.00
2023-01-15T11:12:11.708Z,87594.00
2023-01-15T11:13:11.659Z,87590.00
2023-01-15T11:14:11.646Z,87594.00
2023-01-15T11:15:11.604Z,87596.00
2023-01-15T11:16:11.587Z,87592.00
2023-01-15T11:17:11.535Z,87592.00
2023-01-15T11:18:11.504Z,87584.00
2023-01-15T11:19:11.463Z,87584.00
2023-01-15T11:20:11.448Z,87584.00
2023-01-15T11:21:11.412Z,87584.00
2023-01-15T11:22:11.365Z,87576.00
2023-01-15T11:23:11.347Z,87570.00
2023-01-15T11:24:11.296Z,87572.00
2023-01-15T11:25:11.276Z,87574.00
2023-01-15T11:26:11.259Z,87570.00
2023-01-15T11:27:11.226Z,87568.00
2023-01-15T11:28:11.188Z,87568.00
2023-01-15T11:29:11.173Z,87562.00
2023-01-15T11:30:11.137Z,87564.00
2023-01-15T11:31:11.117Z,87568.00
2023-01-15T11:32:11.058Z,87566.00
2023-01-15T11:33:11.093Z,87564.00
2023-01-15T11:34:11.007Z,87570.00
2023-01-15T11:35:10.999Z,87568.00
2023-01-15T11:36:10.959Z,87568.00
2023-01-15T11:37:10.918Z,87570.00
2023-01-15T11:38:10.881Z,87561.00
2023-01-15T11:39:10.831Z,87561.00
2023-01-15T11:40:10.807Z,87559.00
2023-01-15T11:41:10.792Z,87553.00
2023-01-15T11:42:10.750Z,87568.00
2023-01-15T11:43:10.731Z,87572.00
2023-01-15T11:44:10.696Z,87576.00
2023-01-15T11:45:10.652Z,87574.00
2023-01-15T11:46:10.703Z,87570.00
2023-01-15T11:47:10.599Z,87576.00
2023-01-15T11:48:10.579Z,87570.00
2023-01-15T11:49:10.568Z,87566.00
2023-01-15T11:50:10.521Z,87562.00
2023-01-15T11:51:10.498Z,87557.00
2023-01-15T11:52:10.446Z,87561.00
2023-01-15T11:53:10.439Z,87564.00
2023-01-15T11:54:10.406Z,87566.00
2023-01-15T11:55:10.366Z,87574.00
2023-01-15T11:56:10.344Z,87568.00
2023-01-15T11:57:10.315Z,87562.00
2023-01-15T11:58:10.277Z,87570.00
2023-01-15T11:59:10.272Z,87566.00
2023-01-15T12:00:10.235Z,87566.00
2023-01-15T12:01:10.233Z,87570.00
2023-01-15T12:02:10.192Z,87572.00
2023-01-15T12:03:10.151Z,87566.00
2023-01-15T12:04:10.252Z,87570.00
2023-01-15T12:05:10.116Z,87564.00
2023-01-15T12:06:10.116Z,87559.00
2023-01-15T12:07:10.043Z,87568.00
2023-01-15T12:08:10.026Z,87570.00
2023-01-15T12:09:09.982Z,87562.00
2023-01-15T12:10:09.970Z,87566.00
2023-01-15T12:11:25.548Z,87566.00
2023-01-15T12:12:10.927Z,87557.00